createdAt,value
2017-12-22T00:02:10.955Z,16.77
2017-12-22T00:04:36.724Z,12.07
2017-12-22T00:07:02.480Z,15.07
2017-12-22T00:09:28.235Z,19.20
2017-12-22T00:11:54.660Z,19.20
2017-12-22T00:14:20.425Z,18.65
2017-12-22T00:16:46.197Z,19.33
2017-12-22T00:19:11.964Z,17.87
2017-12-22T00:21:37.731Z,20.77
2017-12-22T00:24:03.490Z,17.47
2017-12-22T00:26:29.259Z,15.13
2017-12-22T00:28:55.011Z,20.67
2017-12-22T00:31:20.760Z,12.77
2017-12-22T00:33:46.508Z,19.00
2017-12-22T00:36:12.272Z,18.47
2017-12-22T00:38:38.043Z,22.60
2017-12-22T00:41:03.829Z,14.63
2017-12-22T00:43:29.580Z,17.07
2017-12-22T00:46:01.471Z,14.10
2017-12-22T00:48:27.217Z,17.50
2017-12-22T00:50:52.984Z,17.10
2017-12-22T00:53:18.748Z,20.67
2017-12-22T00:55:44.526Z,15.43
2017-12-22T00:58:10.617Z,12.50
2017-12-22T01:00:36.384Z,13.73
2017-12-22T01:03:02.168Z,16.63
2017-12-22T01:05:27.944Z,13.73
2017-12-22T01:07:53.708Z,16.80
2017-12-22T01:10:19.470Z,15.93
2017-12-22T01:12:45.232Z,15.57
2017-12-22T01:15:11.011Z,16.70
2017-12-22T01:17:42.836Z,16.93
2017-12-22T01:20:08.595Z,21.58
2017-12-22T01:22:34.363Z,15.53
2017-12-22T01:25:00.120Z,16.77
2017-12-22T01:27:25.896Z,17.47
2017-12-22T01:29:52.784Z,15.37
2017-12-22T01:32:18.547Z,21.12
2017-12-22T01:34:44.379Z,16.13
2017-12-22T01:37:10.184Z,18.50
2017-12-22T01:39:35.952Z,21.40
2017-12-22T01:42:01.733Z,13.20
2017-12-22T01:44:27.498Z,17.10
2017-12-22T01:46:53.272Z,15.93
2017-12-22T01:49:19.358Z,13.60
2017-12-22T01:51:45.097Z,14.75
2017-12-22T01:54:10.952Z,17.87
2017-12-22T01:56:36.752Z,14.63
2017-12-22T01:59:02.524Z,16.07
2017-12-22T02:01:28.293Z,17.80
2017-12-22T02:03:54.066Z,14.17
2017-12-22T02:06:19.806Z,16.93
2017-12-22T02:08:45.587Z,15.03
2017-12-22T02:11:11.347Z,15.87
2017-12-22T02:13:37.108Z,13.83
2017-12-22T02:16:02.871Z,16.30
2017-12-22T02:18:28.632Z,17.53
2017-12-22T02:20:54.405Z,14.87
2017-12-22T02:23:20.187Z,17.27
2017-12-22T02:25:45.971Z,17.37
2017-12-22T02:28:11.727Z,14.17
2017-12-22T02:30:37.470Z,16.97
2017-12-22T02:33:03.220Z,17.20
2017-12-22T02:35:28.985Z,14.90
2017-12-22T02:37:54.739Z,12.83
2017-12-22T02:40:20.509Z,23.93
2017-12-22T02:42:46.261Z,12.80
2017-12-22T02:45:12.040Z,13.27
2017-12-22T02:47:37.825Z,17.83
2017-12-22T02:50:03.593Z,16.37
2017-12-22T02:52:29.349Z,12.57
2017-12-22T02:54:55.100Z,21.03
2017-12-22T02:57:20.847Z,16.00
2017-12-22T02:59:46.604Z,17.67
2017-12-22T03:02:12.364Z,13.87
2017-12-22T03:04:38.128Z,17.03
2017-12-22T03:07:03.884Z,18.77
2017-12-22T03:09:29.648Z,20.00
2017-12-22T03:11:55.425Z,17.60
2017-12-22T03:14:21.175Z,17.63
2017-12-22T03:16:46.932Z,18.20
2017-12-22T03:19:12.691Z,21.43
2017-12-22T03:21:38.452Z,18.90
2017-12-22T03:24:04.215Z,18.10
2017-12-22T03:26:29.966Z,19.30
2017-12-22T03:28:55.711Z,20.50
2017-12-22T03:31:21.476Z,11.63
2017-12-22T03:33:47.226Z,16.67
2017-12-22T03:36:12.988Z,20.60
2017-12-22T03:38:38.739Z,13.73
2017-12-22T03:41:04.499Z,16.27
2017-12-22T03:43:30.251Z,20.63
2017-12-22T03:45:56.004Z,19.77
2017-12-22T03:48:21.750Z,15.93
2017-12-22T03:50:47.488Z,23.50
2017-12-22T03:53:13.252Z,14.30
2017-12-22T03:55:38.991Z,19.53
2017-12-22T03:58:04.752Z,23.17
2017-12-22T04:00:30.503Z,18.87
2017-12-22T04:02:56.254Z,15.23
2017-12-22T04:05:21.979Z,21.30
2017-12-22T04:07:47.725Z,16.60
2017-12-22T04:10:13.487Z,17.03
2017-12-22T04:12:39.251Z,20.63
2017-12-22T04:15:05.011Z,20.87
2017-12-22T04:17:30.756Z,17.93
2017-12-22T04:19:56.497Z,16.73
2017-12-22T04:22:22.239Z,23.47
2017-12-22T04:24:47.985Z,19.37
2017-12-22T04:27:13.727Z,19.03
2017-12-22T04:29:39.466Z,16.37
2017-12-22T04:32:05.219Z,23.00
2017-12-22T04:34:30.955Z,20.30
2017-12-22T04:36:56.694Z,17.40
2017-12-22T04:39:22.439Z,14.00
2017-12-22T04:41:48.195Z,12.97
2017-12-22T04:44:14.605Z,15.90
2017-12-22T04:46:40.359Z,11.18
2017-12-22T04:49:06.128Z,11.70
2017-12-22T04:51:31.871Z,10.83
2017-12-22T04:53:57.631Z,9.93
2017-12-22T04:56:23.372Z,12.47
2017-12-22T04:58:49.128Z,7.80
2017-12-22T05:01:14.867Z,5.70
2017-12-22T05:03:40.624Z,5.87
2017-12-22T05:06:06.375Z,6.17
2017-12-22T05:08:32.118Z,6.90
2017-12-22T05:10:57.872Z,6.07
2017-12-22T05:13:23.630Z,8.20
2017-12-22T05:15:49.392Z,9.43
2017-12-22T05:18:15.126Z,7.27
2017-12-22T05:20:40.858Z,7.87
2017-12-22T05:23:06.579Z,8.47
2017-12-22T05:25:32.322Z,8.83
2017-12-22T05:27:58.076Z,10.63
2017-12-22T05:30:23.835Z,12.73
2017-12-22T05:32:49.575Z,9.77
2017-12-22T05:35:15.339Z,13.57
2017-12-22T05:37:41.078Z,13.90
2017-12-22T05:40:06.843Z,12.97
2017-12-22T05:42:32.600Z,10.10
2017-12-22T05:44:58.360Z,15.10
2017-12-22T05:47:24.120Z,15.63
2017-12-22T05:49:49.893Z,11.93
2017-12-22T05:52:15.643Z,16.33
2017-12-22T05:54:41.401Z,16.07
2017-12-22T05:57:07.165Z,22.10
2017-12-22T05:59:32.914Z,17.27
2017-12-22T06:01:58.671Z,15.87
2017-12-22T06:04:24.443Z,18.47
2017-12-22T06:06:50.204Z,16.43
2017-12-22T06:09:15.955Z,17.23
2017-12-22T06:11:41.703Z,20.37
2017-12-22T06:14:07.453Z,17.20
2017-12-22T06:16:33.215Z,14.87
2017-12-22T06:18:58.967Z,20.33
2017-12-22T06:21:24.722Z,15.27
2017-12-22T06:23:50.471Z,17.47
2017-12-22T06:26:16.235Z,14.50
2017-12-22T06:28:41.988Z,16.80
2017-12-22T06:31:07.743Z,16.43
2017-12-22T06:33:33.502Z,18.13
2017-12-22T06:35:59.262Z,28.10
2017-12-22T06:38:25.028Z,14.23
2017-12-22T06:40:50.797Z,19.27
2017-12-22T06:43:16.560Z,16.40
2017-12-22T06:45:42.318Z,17.73
2017-12-22T06:48:08.094Z,20.43
2017-12-22T06:50:33.848Z,20.10
2017-12-22T06:52:59.616Z,20.10
2017-12-22T06:55:25.385Z,20.53
2017-12-22T06:57:51.164Z,18.70
2017-12-22T07:00:16.920Z,20.93
2017-12-22T07:02:42.682Z,18.97
2017-12-22T07:05:08.436Z,15.07
2017-12-22T07:07:34.214Z,17.87
2017-12-22T07:09:59.962Z,18.63
2017-12-22T07:12:25.743Z,21.60
2017-12-22T07:14:51.499Z,19.53
2017-12-22T07:17:17.277Z,19.47
2017-12-22T07:19:43.030Z,21.57
2017-12-22T07:22:08.800Z,19.37
2017-12-22T07:24:34.558Z,15.10
2017-12-22T07:27:00.317Z,17.77
2017-12-22T07:29:26.084Z,16.90
2017-12-22T07:31:51.831Z,19.03
2017-12-22T07:34:17.587Z,21.27
2017-12-22T07:36:43.355Z,18.50
2017-12-22T07:39:09.131Z,21.77
2017-12-22T07:41:34.902Z,22.60
2017-12-22T07:44:00.672Z,21.50
2017-12-22T07:46:26.445Z,17.77
2017-12-22T07:48:52.212Z,18.53
2017-12-22T07:51:17.950Z,19.87
2017-12-22T07:53:43.707Z,19.03
2017-12-22T07:56:09.484Z,21.80
2017-12-22T07:58:35.247Z,12.50
2017-12-22T08:01:01.016Z,19.57
2017-12-22T08:03:26.796Z,15.93
2017-12-22T08:05:52.559Z,17.33
2017-12-22T08:08:18.327Z,16.27
2017-12-22T08:10:44.095Z,18.00
2017-12-22T08:13:09.859Z,14.43
2017-12-22T08:15:35.627Z,17.60
2017-12-22T08:18:01.382Z,21.53
2017-12-22T08:20:27.158Z,14.23
2017-12-22T08:22:52.909Z,15.60
2017-12-22T08:25:18.666Z,14.73
2017-12-22T08:27:44.426Z,16.03
2017-12-22T08:30:10.182Z,17.97
2017-12-22T08:32:35.960Z,18.33
2017-12-22T08:35:01.725Z,18.60
2017-12-22T08:37:27.499Z,19.77
2017-12-22T08:39:53.252Z,20.70
2017-12-22T08:42:19.026Z,19.37
2017-12-22T08:44:44.775Z,19.90
2017-12-22T08:47:10.518Z,31.73
2017-12-22T08:49:36.264Z,23.73
2017-12-22T08:52:02.037Z,19.57
2017-12-22T08:54:27.775Z,17.47
2017-12-22T08:56:53.544Z,17.20
2017-12-22T08:59:19.296Z,16.20
2017-12-22T09:01:45.035Z,16.67
2017-12-22T09:04:10.783Z,20.47
2017-12-22T09:06:36.519Z,18.93
2017-12-22T09:09:02.284Z,17.83
2017-12-22T09:11:28.039Z,14.60
2017-12-22T09:13:53.786Z,15.47
2017-12-22T09:16:19.519Z,14.77
2017-12-22T09:18:45.266Z,17.40
2017-12-22T09:21:10.991Z,17.97
2017-12-22T09:23:36.746Z,16.83
2017-12-22T09:26:02.499Z,17.73
2017-12-22T09:28:28.255Z,16.63
2017-12-22T09:30:54.009Z,16.93
2017-12-22T09:33:19.759Z,13.43
2017-12-22T09:35:45.486Z,12.97
2017-12-22T09:38:11.231Z,15.90
2017-12-22T09:40:36.987Z,16.57
2017-12-22T09:43:09.783Z,13.13
2017-12-22T09:45:35.532Z,15.48
2017-12-22T09:48:01.329Z,9.53
2017-12-22T09:50:27.060Z,15.13
2017-12-22T09:52:52.808Z,12.90
2017-12-22T09:55:18.558Z,16.50
2017-12-22T09:57:44.369Z,15.07
2017-12-22T10:00:10.096Z,16.17
2017-12-22T10:02:35.846Z,16.83
2017-12-22T10:05:01.587Z,13.60
2017-12-22T10:07:27.331Z,12.47
2017-12-22T10:09:53.085Z,16.60
2017-12-22T10:12:18.831Z,11.60
2017-12-22T10:14:44.580Z,14.30
2017-12-22T10:17:10.321Z,15.47
2017-12-22T10:19:36.082Z,10.20
2017-12-22T10:22:01.836Z,13.47
2017-12-22T10:24:27.596Z,15.07
2017-12-22T10:26:53.347Z,14.67
2017-12-22T10:29:19.087Z,10.03
2017-12-22T10:31:44.844Z,15.33
2017-12-22T10:34:10.586Z,14.73
2017-12-22T10:36:36.344Z,16.03
2017-12-22T10:39:02.107Z,10.40
2017-12-22T10:41:27.897Z,14.90
2017-12-22T10:43:53.649Z,16.03
2017-12-22T10:46:19.420Z,14.57
2017-12-22T10:48:45.195Z,11.83
2017-12-22T10:51:10.960Z,14.27
2017-12-22T10:53:36.719Z,20.23
2017-12-22T10:56:02.487Z,11.00
2017-12-22T10:58:28.227Z,13.17
2017-12-22T11:00:54.006Z,15.83
2017-12-22T11:03:19.786Z,16.77
2017-12-22T11:05:45.541Z,15.07
2017-12-22T11:08:11.325Z,16.83
2017-12-22T11:10:37.491Z,14.77
2017-12-22T11:13:03.255Z,17.98
2017-12-22T11:15:29.027Z,14.53
2017-12-22T11:17:54.787Z,13.83
2017-12-22T11:20:20.556Z,18.50
2017-12-22T11:22:46.327Z,15.33
2017-12-22T11:25:12.093Z,12.83
2017-12-22T11:27:37.846Z,14.43
2017-12-22T11:30:03.603Z,12.43
2017-12-22T11:32:29.377Z,13.10
2017-12-22T11:34:55.131Z,14.77
2017-12-22T11:37:20.905Z,11.80
2017-12-22T11:39:46.662Z,11.57
2017-12-22T11:42:12.432Z,17.87
2017-12-22T11:44:38.187Z,14.77
2017-12-22T11:47:03.944Z,9.33
2017-12-22T11:49:29.684Z,13.83
2017-12-22T11:51:55.411Z,14.73
2017-12-22T11:54:21.175Z,14.73
2017-12-22T11:56:46.920Z,13.30
2017-12-22T11:59:12.671Z,14.50
2017-12-22T12:01:38.411Z,14.10
2017-12-22T12:04:04.174Z,15.33
2017-12-22T12:06:29.910Z,12.70
2017-12-22T12:08:55.669Z,16.20
2017-12-22T12:11:21.412Z,10.87
2017-12-22T12:13:47.155Z,16.37
2017-12-22T12:16:12.901Z,11.03
2017-12-22T12:18:38.646Z,11.73
2017-12-22T12:21:04.420Z,10.87
2017-12-22T12:23:30.188Z,13.97
2017-12-22T12:25:55.926Z,18.67
2017-12-22T12:28:21.693Z,15.37
2017-12-22T12:30:47.431Z,12.63
2017-12-22T12:33:13.175Z,11.37
2017-12-22T12:35:38.931Z,13.37
2017-12-22T12:38:04.670Z,19.10
2017-12-22T12:40:30.444Z,12.67
2017-12-22T12:42:56.216Z,14.37
2017-12-22T12:45:21.988Z,15.00
2017-12-22T12:47:47.738Z,15.17
2017-12-22T12:50:13.488Z,11.50
2017-12-22T12:52:39.252Z,13.30
2017-12-22T12:55:05.042Z,15.43
2017-12-22T12:57:30.799Z,14.70
2017-12-22T12:59:56.903Z,18.00
2017-12-22T13:02:22.684Z,14.65
2017-12-22T13:04:48.443Z,16.07
2017-12-22T13:07:14.232Z,16.17
2017-12-22T13:09:40.015Z,12.30
2017-12-22T13:12:05.811Z,14.27
2017-12-22T13:14:31.640Z,15.33
2017-12-22T13:16:57.427Z,17.93
2017-12-22T13:19:23.188Z,13.37
2017-12-22T13:21:48.992Z,19.40
2017-12-22T13:24:14.748Z,15.23
2017-12-22T13:26:40.536Z,14.87
2017-12-22T13:29:06.328Z,18.80
2017-12-22T13:31:32.115Z,15.63
2017-12-22T13:33:57.871Z,17.37
2017-12-22T13:36:23.622Z,16.83
2017-12-22T13:38:49.400Z,27.13
2017-12-22T13:41:15.161Z,19.07
2017-12-22T13:43:40.939Z,15.57
2017-12-22T13:46:06.695Z,17.53
2017-12-22T13:48:32.556Z,20.53
2017-12-22T13:50:58.479Z,16.13
2017-12-22T13:53:24.220Z,17.23
2017-12-22T13:55:49.967Z,15.70
2017-12-22T13:58:15.720Z,14.70
2017-12-22T14:00:42.286Z,15.23
2017-12-22T14:03:08.844Z,23.55
2017-12-22T14:05:35.675Z,15.77
2017-12-22T14:08:02.600Z,17.52
2017-12-22T14:10:28.474Z,15.63
2017-12-22T14:12:55.154Z,20.43
2017-12-22T14:15:21.868Z,16.65
2017-12-22T14:17:48.721Z,12.82
2017-12-22T14:20:15.481Z,13.40
2017-12-22T14:22:42.392Z,16.25
2017-12-22T14:25:08.191Z,11.77
2017-12-22T14:27:34.820Z,14.07
2017-12-22T14:30:01.602Z,14.63
2017-12-22T14:32:28.275Z,23.38
2017-12-22T14:34:55.234Z,12.68
2017-12-22T14:37:21.743Z,14.23
2017-12-22T14:39:48.388Z,18.52
2017-12-22T14:42:15.341Z,19.98
2017-12-22T14:44:41.639Z,17.92
2017-12-22T14:47:07.444Z,19.10
2017-12-22T14:49:33.236Z,17.40
2017-12-22T14:51:59.041Z,14.53
2017-12-22T14:54:25.176Z,22.77
2017-12-22T14:56:51.019Z,21.25
2017-12-22T14:59:23.860Z,18.43
2017-12-22T15:01:49.632Z,16.90
2017-12-22T15:04:15.423Z,17.37
2017-12-22T15:06:42.262Z,21.87
2017-12-22T15:09:08.072Z,17.52
2017-12-22T15:11:33.890Z,22.20
2017-12-22T15:13:59.647Z,16.30
2017-12-22T15:16:25.484Z,16.50
2017-12-22T15:18:51.284Z,20.87
2017-12-22T15:21:17.415Z,19.07
2017-12-22T15:23:43.241Z,24.10
2017-12-22T15:26:09.284Z,15.17
2017-12-22T15:28:35.031Z,24.27
2017-12-22T15:31:00.797Z,19.87
2017-12-22T15:33:26.562Z,16.30
2017-12-22T15:35:52.423Z,22.00
2017-12-22T15:38:18.230Z,17.93
2017-12-22T15:40:44.004Z,18.97
2017-12-22T15:43:09.764Z,19.53
2017-12-22T15:45:35.581Z,21.87
2017-12-22T15:48:01.303Z,19.10
2017-12-22T15:50:27.067Z,23.60
2017-12-22T15:52:52.836Z,22.93
2017-12-22T15:55:18.596Z,16.13
2017-12-22T15:57:44.387Z,24.43
2017-12-22T16:00:10.148Z,19.30
2017-12-22T16:02:35.911Z,23.60
2017-12-22T16:05:01.701Z,22.10
2017-12-22T16:07:27.454Z,13.67
2017-12-22T16:09:53.210Z,21.37
2017-12-22T16:12:18.975Z,18.17
2017-12-22T16:14:44.750Z,23.13
2017-12-22T16:17:10.514Z,17.67
2017-12-22T16:19:36.279Z,16.10
2017-12-22T16:22:02.054Z,19.53
2017-12-22T16:24:27.804Z,18.07
2017-12-22T16:26:53.556Z,17.40
2017-12-22T16:29:19.315Z,25.43
2017-12-22T16:31:45.081Z,23.23
2017-12-22T16:34:10.839Z,26.53
2017-12-22T16:36:36.590Z,19.17
2017-12-22T16:39:02.386Z,24.87
2017-12-22T16:41:28.143Z,19.93
2017-12-22T16:43:53.906Z,18.23
2017-12-22T16:46:19.655Z,26.23
2017-12-22T16:48:45.404Z,23.37
2017-12-22T16:51:11.143Z,24.83
2017-12-22T16:53:36.891Z,17.57
2017-12-22T16:56:02.639Z,23.17
2017-12-22T16:58:28.379Z,22.30
2017-12-22T17:00:54.122Z,21.97
2017-12-22T17:03:19.890Z,16.43
2017-12-22T17:05:45.640Z,22.07
2017-12-22T17:08:11.390Z,21.20
2017-12-22T17:10:37.911Z,20.98
2017-12-22T17:13:03.671Z,21.07
2017-12-22T17:15:29.407Z,18.50
2017-12-22T17:17:55.154Z,20.53
2017-12-22T17:20:20.904Z,21.37
2017-12-22T17:22:46.644Z,18.67
2017-12-22T17:25:12.406Z,19.13
2017-12-22T17:27:38.143Z,26.40
2017-12-22T17:30:03.904Z,18.50
2017-12-22T17:32:29.636Z,23.47
2017-12-22T17:34:55.382Z,25.67
2017-12-22T17:37:21.134Z,19.73
2017-12-22T17:39:47.770Z,18.20
2017-12-22T17:42:13.584Z,23.33
2017-12-22T17:44:39.335Z,31.20
2017-12-22T17:47:05.081Z,19.63
2017-12-22T17:49:30.827Z,20.13
2017-12-22T17:51:56.572Z,21.73
2017-12-22T17:54:22.320Z,14.27
2017-12-22T17:56:48.055Z,24.47
2017-12-22T17:59:13.829Z,15.83
2017-12-22T18:01:39.584Z,19.97
2017-12-22T18:04:05.337Z,31.23
2017-12-22T18:06:31.103Z,24.73
2017-12-22T18:08:56.855Z,20.83
2017-12-22T18:11:22.640Z,24.93
2017-12-22T18:13:48.387Z,26.60
2017-12-22T18:16:14.134Z,21.30
2017-12-22T18:18:39.883Z,23.77
2017-12-22T18:21:05.639Z,21.37
2017-12-22T18:23:31.401Z,23.57
2017-12-22T18:25:57.151Z,23.10
2017-12-22T18:28:22.903Z,15.73
2017-12-22T18:30:48.664Z,19.67
2017-12-22T18:33:14.401Z,21.13
2017-12-22T18:35:40.146Z,19.53
2017-12-22T18:38:05.891Z,21.10
2017-12-22T18:40:31.664Z,18.87
2017-12-22T18:42:57.423Z,20.13
2017-12-22T18:45:23.175Z,18.17
2017-12-22T18:47:48.911Z,15.87
2017-12-22T18:50:14.649Z,18.83
2017-12-22T18:52:40.404Z,14.80
2017-12-22T18:55:06.151Z,21.83
2017-12-22T18:57:31.898Z,16.33
2017-12-22T18:59:57.654Z,23.17
2017-12-22T19:02:23.411Z,16.20
2017-12-22T19:04:49.160Z,17.93
2017-12-22T19:07:14.910Z,20.43
2017-12-22T19:09:40.666Z,17.13
2017-12-22T19:12:06.415Z,20.60
2017-12-22T19:14:32.159Z,22.87
2017-12-22T19:16:57.923Z,24.73
2017-12-22T19:19:23.686Z,16.63
2017-12-22T19:21:49.447Z,19.20
2017-12-22T19:24:15.179Z,20.27
2017-12-22T19:26:40.936Z,17.67
2017-12-22T19:29:06.692Z,16.07
2017-12-22T19:31:32.483Z,17.33
2017-12-22T19:33:58.232Z,18.57
2017-12-22T19:36:23.978Z,17.53
2017-12-22T19:38:49.715Z,20.47
2017-12-22T19:41:15.472Z,17.90
2017-12-22T19:43:41.232Z,17.33
2017-12-22T19:46:06.990Z,16.80
2017-12-22T19:48:32.751Z,19.13
2017-12-22T19:50:58.495Z,11.47
2017-12-22T19:53:24.256Z,16.07
2017-12-22T19:55:50.004Z,16.27
2017-12-22T19:58:15.762Z,14.60
2017-12-22T20:00:41.502Z,20.63
2017-12-22T20:03:19.564Z,13.77
2017-12-22T20:05:45.290Z,20.35
2017-12-22T20:08:11.039Z,16.97
2017-12-22T20:10:36.791Z,15.13
2017-12-22T20:13:02.559Z,13.23
2017-12-22T20:15:28.311Z,19.27
2017-12-22T20:17:54.091Z,18.00
2017-12-22T20:20:19.892Z,19.50
2017-12-22T20:22:45.644Z,20.27
2017-12-22T20:25:11.405Z,15.57
2017-12-22T20:27:37.179Z,16.63
2017-12-22T20:30:03.019Z,15.43
2017-12-22T20:32:28.768Z,18.43
2017-12-22T20:34:54.515Z,17.83
2017-12-22T20:37:20.263Z,13.67
2017-12-22T20:39:45.999Z,19.57
2017-12-22T20:42:11.744Z,15.07
2017-12-22T20:44:37.483Z,13.37
2017-12-22T20:47:03.216Z,19.60
2017-12-22T20:49:28.963Z,10.23
2017-12-22T20:51:54.826Z,16.30
2017-12-22T20:54:20.588Z,14.80
2017-12-22T20:56:46.344Z,18.80
2017-12-22T20:59:12.102Z,17.47
2017-12-22T21:01:37.856Z,21.73
2017-12-22T21:04:03.600Z,18.37
2017-12-22T21:06:29.338Z,13.43
2017-12-22T21:08:55.075Z,13.93
2017-12-22T21:11:20.828Z,12.60
2017-12-22T21:13:46.563Z,22.43
2017-12-22T21:16:12.315Z,17.33
2017-12-22T21:18:38.051Z,23.53
2017-12-22T21:21:03.795Z,22.60
2017-12-22T21:23:29.534Z,26.13
2017-12-22T21:25:55.306Z,23.03
2017-12-22T21:28:21.051Z,30.87
2017-12-22T21:30:46.814Z,26.20
2017-12-22T21:33:12.554Z,25.57
2017-12-22T21:35:38.306Z,24.40
2017-12-22T21:38:04.051Z,29.43
2017-12-22T21:40:29.837Z,38.67
2017-12-22T21:42:55.607Z,41.73
2017-12-22T21:45:21.376Z,34.37
2017-12-22T21:47:47.138Z,38.90
2017-12-22T21:50:12.895Z,35.13
2017-12-22T21:52:38.666Z,43.27
2017-12-22T21:55:04.431Z,40.23
2017-12-22T21:57:30.202Z,40.33
2017-12-22T21:59:55.959Z,42.43
2017-12-22T22:02:21.718Z,49.00
2017-12-22T22:04:47.470Z,47.10
2017-12-22T22:07:13.235Z,49.37
2017-12-22T22:09:38.987Z,44.97
2017-12-22T22:12:04.764Z,52.80
2017-12-22T22:14:30.515Z,49.13
2017-12-22T22:16:56.295Z,52.17
2017-12-22T22:19:22.047Z,39.87
2017-12-22T22:21:47.815Z,38.87
2017-12-22T22:24:13.588Z,28.73
2017-12-22T22:26:39.355Z,45.00
2017-12-22T22:29:05.120Z,36.13
2017-12-22T22:31:30.874Z,36.27
2017-12-22T22:33:56.626Z,33.53
2017-12-22T22:36:22.380Z,31.70
2017-12-22T22:38:48.138Z,33.17
2017-12-22T22:41:13.916Z,39.47
2017-12-22T22:43:39.695Z,42.90
2017-12-22T22:46:05.439Z,31.77
2017-12-22T22:48:31.188Z,36.63
2017-12-22T22:50:56.949Z,34.67
2017-12-22T22:53:22.715Z,31.40
2017-12-22T22:55:48.476Z,39.53
2017-12-22T22:58:14.241Z,40.50
2017-12-22T23:00:40.050Z,37.70
2017-12-22T23:03:05.815Z,42.07
2017-12-22T23:05:31.572Z,36.23
2017-12-22T23:07:57.343Z,36.93
2017-12-22T23:10:23.095Z,33.63
2017-12-22T23:12:48.876Z,30.67
2017-12-22T23:15:14.622Z,28.83
2017-12-22T23:17:40.369Z,32.53
2017-12-22T23:20:06.129Z,31.07
2017-12-22T23:22:31.892Z,27.57
2017-12-22T23:24:57.668Z,27.90
2017-12-22T23:27:23.424Z,27.70
2017-12-22T23:29:49.187Z,23.73
2017-12-22T23:32:14.943Z,24.30
2017-12-22T23:34:40.723Z,23.93
2017-12-22T23:37:06.475Z,21.40
2017-12-22T23:39:32.242Z,20.90
2017-12-22T23:41:57.987Z,18.07
2017-12-22T23:44:23.735Z,24.67
2017-12-22T23:46:49.475Z,19.63
2017-12-22T23:49:15.246Z,21.67
2017-12-22T23:51:40.980Z,20.33
2017-12-22T23:54:06.775Z,24.57
2017-12-22T23:56:32.519Z,20.43
2017-12-22T23:58:58.248Z,21.50
